sensor_id;sensor_type;location;lat;lon;timestamp;pressure;altitude;pressure_sealevel;temperature;humidity
71465;BME280;59274;49.874;9.154;2023-02-23T00:00:47;100040.56;;;8.14;100.00
71465;BME280;59274;49.874;9.154;2023-02-23T00:03:12;100046.56;;;8.04;100.00
71465;BME280;59274;49.874;9.154;2023-02-23T00:05:38;100040.09;;;8.09;100.00
71465;BME280;59274;49.874;9.154;2023-02-23T00:08:04;100038.31;;;7.97;100.00
71465;BME280;59274;49.874;9.154;2023-02-23T00:10:30;100041.03;;;7.97;100.00
71465;BME280;59274;49.874;9.154;2023-02-23T00:12:57;100041.94;;;8.05;100.00
71465;BME280;59274;49.874;9.154;2023-02-23T00:15:23;100041.88;;;8.01;100.00
71465;BME280;59274;49.874;9.154;2023-02-23T00:17:55;100037.19;;;7.98;100.00
71465;BME280;59274;49.874;9.154;2023-02-23T00:20:22;100038.19;;;7.90;100.00
71465;BME280;59274;49.874;9.154;2023-02-23T00:22:56;100033.66;;;7.94;100.00
71465;BME280;59274;49.874;9.154;2023-02-23T00:25:23;100037.25;;;8.02;100.00
71465;BME280;59274;49.874;9.154;2023-02-23T00:27:50;100035.19;;;8.18;100.00
71465;BME280;59274;49.874;9.154;2023-02-23T00:30:17;100037.13;;;8.17;100.00
71465;BME280;59274;49.874;9.154;2023-02-23T00:32:43;100034.53;;;8.24;100.00
71465;BME280;59274;49.874;9.154;2023-02-23T00:35:09;100034.19;;;8.26;100.00
71465;BME280;59274;49.874;9.154;2023-02-23T00:37:48;100038.69;;;8.18;100.00
71465;BME280;59274;49.874;9.154;2023-02-23T00:40:17;100030.19;;;8.16;100.00
71465;BME280;59274;49.874;9.154;2023-02-23T00:42:46;100035.09;;;8.11;100.00
71465;BME280;59274;49.874;9.154;2023-02-23T00:45:12;100029.41;;;8.16;100.00
71465;BME280;59274;49.874;9.154;2023-02-23T00:47:39;100025.03;;;8.11;100.00
71465;BME280;59274;49.874;9.154;2023-02-23T00:50:08;100030.06;;;8.09;100.00
71465;BME280;59274;49.874;9.154;2023-02-23T00:52:37;100031.97;;;8.09;100.00
71465;BME280;59274;49.874;9.154;2023-02-23T00:55:04;100032.56;;;8.21;100.00
71465;BME280;59274;49.874;9.154;2023-02-23T00:57:29;100033.03;;;8.27;100.00
71465;BME280;59274;49.874;9.154;2023-02-23T00:59:54;100035.72;;;8.23;100.00
71465;BME280;59274;49.874;9.154;2023-02-23T01:02:21;100029.44;;;8.19;100.00
71465;BME280;59274;49.874;9.154;2023-02-23T01:04:47;100028.72;;;8.22;100.00
71465;BME280;59274;49.874;9.154;2023-02-23T01:07:12;100039.25;;;8.27;100.00
71465;BME280;59274;49.874;9.154;2023-02-23T01:09:37;100034.53;;;8.24;100.00
71465;BME280;59274;49.874;9.154;2023-02-23T01:12:03;100034.94;;;8.23;100.00
71465;BME280;59274;49.874;9.154;2023-02-23T01:14:32;100035.59;;;8.16;100.00
71465;BME280;59274;49.874;9.154;2023-02-23T01:16:58;100027.34;;;8.09;100.00
71465;BME280;59274;49.874;9.154;2023-02-23T01:19:23;100029.16;;;8.02;100.00
71465;BME280;59274;49.874;9.154;2023-02-23T01:21:49;100025.34;;;8.06;100.00
71465;BME280;59274;49.874;9.154;2023-02-23T01:24:14;100034.38;;;8.14;100.00
71465;BME280;59274;49.874;9.154;2023-02-23T01:26:43;100025.81;;;8.12;100.00
71465;BME280;59274;49.874;9.154;2023-02-23T01:29:14;100028.13;;;8.10;100.00
71465;BME280;59274;49.874;9.154;2023-02-23T01:31:43;100033.16;;;8.11;100.00
71465;BME280;59274;49.874;9.154;2023-02-23T01:34:10;100024.25;;;8.11;100.00
71465;BME280;59274;49.874;9.154;2023-02-23T01:36:38;100029.41;;;8.16;100.00
71465;BME280;59274;49.874;9.154;2023-02-23T01:39:06;100030.06;;;8.09;100.00
71465;BME280;59274;49.874;9.154;2023-02-23T01:41:34;100026.91;;;8.07;100.00
71465;BME280;59274;49.874;9.154;2023-02-23T01:44:04;100023.91;;;8.12;100.00
71465;BME280;59274;49.874;9.154;2023-02-23T01:46:31;100030.34;;;8.27;100.00
71465;BME280;59274;49.874;9.154;2023-02-23T01:48:57;100023.00;;;8.27;100.00
71465;BME280;59274;49.874;9.154;2023-02-23T01:51:27;100014.88;;;8.27;100.00
71465;BME280;59274;49.874;9.154;2023-02-23T01:54:08;100023.72;;;8.24;100.00
71465;BME280;59274;49.874;9.154;2023-02-23T01:56:39;100024.81;;;8.20;100.00
71465;BME280;59274;49.874;9.154;2023-02-23T01:59:10;100023.59;;;8.17;100.00
71465;BME280;59274;49.874;9.154;2023-02-23T02:01:41;100020.38;;;8.08;100.00
71465;BME280;59274;49.874;9.154;2023-02-23T02:04:10;100016.22;;;8.14;100.00
71465;BME280;59274;49.874;9.154;2023-02-23T02:06:42;100024.66;;;8.09;100.00
71465;BME280;59274;49.874;9.154;2023-02-23T02:09:10;100020.72;;;8.07;100.00
71465;BME280;59274;49.874;9.154;2023-02-23T02:11:41;100019.72;;;8.15;100.00
71465;BME280;59274;49.874;9.154;2023-02-23T02:14:18;100022.84;;;8.17;100.00
71465;BME280;59274;49.874;9.154;2023-02-23T02:20:19;100026.84;;;8.26;100.00
71465;BME280;59274;49.874;9.154;2023-02-23T02:28:51;100013.94;;;8.16;100.00
71465;BME280;59274;49.874;9.154;2023-02-23T02:31:46;100013.09;;;8.12;100.00
71465;BME280;59274;49.874;9.154;2023-02-23T02:42:50;100006.63;;;8.17;100.00
71465;BME280;59274;49.874;9.154;2023-02-23T02:50:49;100008.22;;;8.21;100.00
71465;BME280;59274;49.874;9.154;2023-02-23T02:53:24;100014.84;;;8.24;100.00
71465;BME280;59274;49.874;9.154;2023-02-23T02:55:54;100008.34;;;8.29;100.00
71465;BME280;59274;49.874;9.154;2023-02-23T02:58:24;100003.78;;;8.10;100.00
71465;BME280;59274;49.874;9.154;2023-02-23T03:00:50;100006.41;;;8.06;100.00
71465;BME280;59274;49.874;9.154;2023-02-23T03:06:46;100003.44;;;7.89;100.00
71465;BME280;59274;49.874;9.154;2023-02-23T03:09:45;100001.13;;;7.91;100.00
71465;BME280;59274;49.874;9.154;2023-02-23T03:18:37;100002.88;;;7.60;100.00
71465;BME280;59274;49.874;9.154;2023-02-23T03:21:32;100005.03;;;7.51;100.00
71465;BME280;59274;49.874;9.154;2023-02-23T03:24:31;100005.69;;;7.44;100.00
71465;BME280;59274;49.874;9.154;2023-02-23T03:27:29;100006.66;;;7.56;100.00
71465;BME280;59274;49.874;9.154;2023-02-23T03:30:23;100010.09;;;7.53;100.00
71465;BME280;59274;49.874;9.154;2023-02-23T03:33:18;100001.25;;;7.56;100.00
71465;BME280;59274;49.874;9.154;2023-02-23T03:36:13;100006.31;;;7.57;100.00
71465;BME280;59274;49.874;9.154;2023-02-23T03:41:48;100006.66;;;7.56;100.00
71465;BME280;59274;49.874;9.154;2023-02-23T03:44:39;100008.94;;;7.54;100.00
71465;BME280;59274;49.874;9.154;2023-02-23T03:47:27;100010.22;;;7.60;100.00
71465;BME280;59274;49.874;9.154;2023-02-23T03:50:23;100006.00;;;7.62;100.00
71465;BME280;59274;49.874;9.154;2023-02-23T03:53:13;100017.75;;;7.51;100.00
71465;BME280;59274;49.874;9.154;2023-02-23T03:55:59;100012.22;;;7.43;100.00
71465;BME280;59274;49.874;9.154;2023-02-23T03:58:51;100006.09;;;7.46;100.00
71465;BME280;59274;49.874;9.154;2023-02-23T04:01:37;100014.97;;;7.47;100.00
71465;BME280;59274;49.874;9.154;2023-02-23T04:04:22;100011.72;;;7.57;100.00
71465;BME280;59274;49.874;9.154;2023-02-23T04:07:09;100010.22;;;7.60;100.00
71465;BME280;59274;49.874;9.154;2023-02-23T04:09:58;100012.94;;;7.60;100.00
71465;BME280;59274;49.874;9.154;2023-02-23T04:12:53;100013.56;;;7.53;100.00
71465;BME280;59274;49.874;9.154;2023-02-23T04:15:47;100013.56;;;7.53;100.00
71465;BME280;59274;49.874;9.154;2023-02-23T04:18:16;100015.75;;;7.47;100.00
71465;BME280;59274;49.874;9.154;2023-02-23T04:20:41;100017.78;;;7.31;100.00
71465;BME280;59274;49.874;9.154;2023-02-23T04:23:07;100018.53;;;7.32;100.00
71465;BME280;59274;49.874;9.154;2023-02-23T04:25:32;100015.63;;;7.40;100.00
71465;BME280;59274;49.874;9.154;2023-02-23T04:27:58;100021.03;;;7.40;100.00
71465;BME280;59274;49.874;9.154;2023-02-23T04:30:23;100020.19;;;7.36;100.00
71465;BME280;59274;49.874;9.154;2023-02-23T04:32:53;100013.13;;;7.32;100.00
71465;BME280;59274;49.874;9.154;2023-02-23T04:35:19;100018.91;;;7.30;100.00
71465;BME280;59274;49.874;9.154;2023-02-23T04:37:45;100013.41;;;7.46;100.00
71465;BME280;59274;49.874;9.154;2023-02-23T04:40:11;100016.25;;;7.53;100.00
71465;BME280;59274;49.874;9.154;2023-02-23T04:42:40;100020.66;;;7.61;100.00
71465;BME280;59274;49.874;9.154;2023-02-23T04:45:07;100014.56;;;7.64;100.00
71465;BME280;59274;49.874;9.154;2023-02-23T04:47:32;100014.41;;;7.57;100.00
71465;BME280;59274;49.874;9.154;2023-02-23T04:49:58;100021.03;;;7.60;100.00
71465;BME280;59274;49.874;9.154;2023-02-23T04:52:23;100026.06;;;7.61;100.00
71465;BME280;59274;49.874;9.154;2023-02-23T04:54:49;100016.03;;;7.62;100.00
71465;BME280;59274;49.874;9.154;2023-02-23T04:57:14;100026.72;;;7.55;100.00
71465;BME280;59274;49.874;9.154;2023-02-23T04:59:39;100018.75;;;7.62;100.00
71465;BME280;59274;49.874;9.154;2023-02-23T05:02:05;100023.75;;;7.60;100.00
71465;BME280;59274;49.874;9.154;2023-02-23T05:04:31;100022.97;;;7.59;100.00
71465;BME280;59274;49.874;9.154;2023-02-23T05:07:00;100024.44;;;7.57;100.00
71465;BME280;59274;49.874;9.154;2023-02-23T05:09:25;100017.56;;;7.59;100.00
71465;BME280;59274;49.874;9.154;2023-02-23T05:11:51;100014.56;;;7.64;100.00
71465;BME280;59274;49.874;9.154;2023-02-23T05:14:16;100024.28;;;7.69;100.00
71465;BME280;59274;49.874;9.154;2023-02-23T05:16:42;100012.94;;;7.60;100.00
71465;BME280;59274;49.874;9.154;2023-02-23T05:19:07;100021.44;;;7.62;100.00
71465;BME280;59274;49.874;9.154;2023-02-23T05:21:33;100020.75;;;7.65;100.00
71465;BME280;59274;49.874;9.154;2023-02-23T05:23:58;100023.16;;;7.70;100.00
71465;BME280;59274;49.874;9.154;2023-02-23T05:26:24;100013.91;;;7.71;100.00
71465;BME280;59274;49.874;9.154;2023-02-23T05:28:49;100019.59;;;7.66;100.00
71465;BME280;59274;49.874;9.154;2023-02-23T05:31:15;100021.88;;;7.64;100.00
71465;BME280;59274;49.874;9.154;2023-02-23T05:33:41;100012.34;;;7.70;100.00
71465;BME280;59274;49.874;9.154;2023-02-23T05:36:11;100019.34;;;7.74;100.00
71465;BME280;59274;49.874;9.154;2023-02-23T05:38:37;100020.56;;;7.77;100.00
71465;BME280;59274;49.874;9.154;2023-02-23T05:41:10;100018.22;;;7.75;100.00
71465;BME280;59274;49.874;9.154;2023-02-23T05:43:36;100022.44;;;7.73;100.00
71465;BME280;59274;49.874;9.154;2023-02-23T05:46:14;100024.00;;;7.74;100.00
71465;BME280;59274;49.874;9.154;2023-02-23T05:48:40;100021.06;;;7.82;100.00
71465;BME280;59274;49.874;9.154;2023-02-23T05:51:07;100019.56;;;7.85;100.00
71465;BME280;59274;49.874;9.154;2023-02-23T05:53:33;100021.97;;;7.90;100.00
71465;BME280;59274;49.874;9.154;2023-02-23T05:56:00;100026.47;;;7.82;100.00
71465;BME280;59274;49.874;9.154;2023-02-23T05:58:26;100028.94;;;7.91;100.00
71465;BME280;59274;49.874;9.154;2023-02-23T06:00:52;100031.53;;;7.84;100.00
71465;BME280;59274;49.874;9.154;2023-02-23T06:03:17;100029.38;;;7.93;100.00
71465;BME280;59274;49.874;9.154;2023-02-23T06:05:49;100033.66;;;7.94;100.00
71465;BME280;59274;49.874;9.154;2023-02-23T06:08:15;100031.09;;;7.82;100.00
71465;BME280;59274;49.874;9.154;2023-02-23T06:10:40;100033.16;;;7.89;100.00
71465;BME280;59274;49.874;9.154;2023-02-23T06:13:06;100025.09;;;7.92;100.00
71465;BME280;59274;49.874;9.154;2023-02-23T06:15:31;100030.94;;;7.94;100.00
71465;BME280;59274;49.874;9.154;2023-02-23T06:17:57;100026.59;;;7.90;100.00
71465;BME280;59274;49.874;9.154;2023-02-23T06:20:22;100032.78;;;7.90;100.00
71465;BME280;59274;49.874;9.154;2023-02-23T06:22:47;100034.44;;;7.95;100.00
71465;BME280;59274;49.874;9.154;2023-02-23T06:25:13;100035.56;;;7.94;100.00
71465;BME280;59274;49.874;9.154;2023-02-23T06:27:38;100033.56;;;7.91;100.00
71465;BME280;59274;49.874;9.154;2023-02-23T06:30:05;100043.19;;;7.88;100.00
71465;BME280;59274;49.874;9.154;2023-02-23T06:32:30;100043.69;;;7.94;100.00
71465;BME280;59274;49.874;9.154;2023-02-23T06:34:56;100037.41;;;7.90;100.00
71465;BME280;59274;49.874;9.154;2023-02-23T06:37:21;100045.66;;;7.97;100.00
71465;BME280;59274;49.874;9.154;2023-02-23T06:39:46;100049.66;;;8.03;100.00
71465;BME280;59274;49.874;9.154;2023-02-23T06:42:13;100051.13;;;8.00;100.00
71465;BME280;59274;49.874;9.154;2023-02-23T06:44:39;100046.63;;;8.08;100.00
71465;BME280;59274;49.874;9.154;2023-02-23T06:47:04;100055.94;;;8.10;100.00
71465;BME280;59274;49.874;9.154;2023-02-23T06:49:30;100053.34;;;8.17;100.00
71465;BME280;59274;49.874;9.154;2023-02-23T06:51:55;100057.94;;;8.13;100.00
71465;BME280;59274;49.874;9.154;2023-02-23T06:54:21;100052.41;;;8.06;100.00
71465;BME280;59274;49.874;9.154;2023-02-23T06:56:47;100054.78;;;8.11;100.00
71465;BME280;59274;49.874;9.154;2023-02-23T06:59:14;100059.97;;;8.20;100.00
71465;BME280;59274;49.874;9.154;2023-02-23T07:01:39;100065.69;;;8.15;100.00
71465;BME280;59274;49.874;9.154;2023-02-23T07:04:06;100064.97;;;8.18;100.00
71465;BME280;59274;49.874;9.154;2023-02-23T07:06:32;100067.13;;;8.09;100.00
71465;BME280;59274;49.874;9.154;2023-02-23T07:08:57;100070.25;;;8.11;100.00
71465;BME280;59274;49.874;9.154;2023-02-23T07:11:23;100065.34;;;8.16;100.00
71465;BME280;59274;49.874;9.154;2023-02-23T07:13:48;100072.41;;;8.24;100.00
71465;BME280;59274;49.874;9.154;2023-02-23T07:16:13;100075.50;;;8.23;100.00
71465;BME280;59274;49.874;9.154;2023-02-23T07:18:40;100074.38;;;8.24;100.00
71465;BME280;59274;49.874;9.154;2023-02-23T07:21:06;100070.91;;;8.27;100.00
71465;BME280;59274;49.874;9.154;2023-02-23T07:23:32;100074.41;;;8.27;100.00
71465;BME280;59274;49.874;9.154;2023-02-23T07:25:57;100077.91;;;8.28;100.00
71465;BME280;59274;49.874;9.154;2023-02-23T07:28:23;100082.19;;;8.29;100.00
71465;BME280;59274;49.874;9.154;2023-02-23T07:30:55;100081.31;;;8.25;100.00
71465;BME280;59274;49.874;9.154;2023-02-23T07:33:21;100081.69;;;8.23;100.00
71465;BME280;59274;49.874;9.154;2023-02-23T07:35:48;100081.84;;;8.31;100.00
71465;BME280;59274;49.874;9.154;2023-02-23T07:38:13;100087.66;;;8.33;100.00
71465;BME280;59274;49.874;9.154;2023-02-23T07:40:39;100077.81;;;8.44;100.00
71465;BME280;59274;49.874;9.154;2023-02-23T07:43:05;100077.34;;;8.38;100.00
71465;BME280;59274;49.874;9.154;2023-02-23T07:45:30;100081.78;;;8.50;100.00
71465;BME280;59274;49.874;9.154;2023-02-23T07:47:56;100082.69;;;8.57;100.00
71465;BME280;59274;49.874;9.154;2023-02-23T07:50:21;100078.09;;;8.61;100.00
71465;BME280;59274;49.874;9.154;2023-02-23T07:52:47;100090.50;;;8.62;100.00
71465;BME280;59274;49.874;9.154;2023-02-23T07:55:12;100088.13;;;8.61;100.00
71465;BME280;59274;49.874;9.154;2023-02-23T07:57:37;100085.44;;;8.61;100.00
71465;BME280;59274;49.874;9.154;2023-02-23T08:00:05;100088.91;;;8.61;100.00
71465;BME280;59274;49.874;9.154;2023-02-23T08:02:30;100088.88;;;8.58;100.00
71465;BME280;59274;49.874;9.154;2023-02-23T08:04:57;100091.84;;;8.76;100.00
71465;BME280;59274;49.874;9.154;2023-02-23T08:07:22;100087.78;;;8.89;100.00
71465;BME280;59274;49.874;9.154;2023-02-23T08:09:50;100098.06;;;9.02;100.00
71465;BME280;59274;49.874;9.154;2023-02-23T08:12:16;100101.56;;;9.03;100.00
71465;BME280;59274;49.874;9.154;2023-02-23T08:14:41;100101.06;;;8.94;100.00
71465;BME280;59274;49.874;9.154;2023-02-23T08:17:07;100103.53;;;9.06;100.00
71465;BME280;59274;49.874;9.154;2023-02-23T08:19:33;100105.44;;;9.02;100.00
71465;BME280;59274;49.874;9.154;2023-02-23T08:21:59;100104.16;;;8.96;100.00
71465;BME280;59274;49.874;9.154;2023-02-23T08:24:24;100101.16;;;9.01;100.00
71465;BME280;59274;49.874;9.154;2023-02-23T08:26:51;100113.25;;;9.07;100.00
71465;BME280;59274;49.874;9.154;2023-02-23T08:29:17;100111.66;;;9.06;100.00
71465;BME280;59274;49.874;9.154;2023-02-23T08:31:43;100109.84;;;9.14;100.00
71465;BME280;59274;49.874;9.154;2023-02-23T08:34:09;100116.72;;;9.34;100.00
71465;BME280;59274;49.874;9.154;2023-02-23T08:36:34;100114.91;;;9.45;100.00
71465;BME280;59274;49.874;9.154;2023-02-23T08:39:00;100112.63;;;9.47;100.00
71465;BME280;59274;49.874;9.154;2023-02-23T08:41:25;100117.00;;;9.55;100.00
71465;BME280;59274;49.874;9.154;2023-02-23T08:43:52;100116.63;;;9.57;100.00
71465;BME280;59274;49.874;9.154;2023-02-23T08:46:17;100118.31;;;9.68;100.00
71465;BME280;59274;49.874;9.154;2023-02-23T08:48:45;100114.28;;;9.89;100.00
71465;BME280;59274;49.874;9.154;2023-02-23T08:51:11;100111.22;;;9.90;100.00
71465;BME280;59274;49.874;9.154;2023-02-23T08:53:37;100120.63;;;10.00;100.00
71465;BME280;59274;49.874;9.154;2023-02-23T08:56:04;100122.03;;;10.20;100.00
71465;BME280;59274;49.874;9.154;2023-02-23T08:58:31;100112.03;;;10.28;100.00
71465;BME280;59274;49.874;9.154;2023-02-23T09:00:57;100115.31;;;10.44;100.00
71465;BME280;59274;49.874;9.154;2023-02-23T09:03:23;100114.59;;;10.50;100.00
71465;BME280;59274;49.874;9.154;2023-02-23T09:05:50;100113.75;;;10.46;100.00
71465;BME280;59274;49.874;9.154;2023-02-23T09:08:16;100115.31;;;10.44;100.00
71465;BME280;59274;49.874;9.154;2023-02-23T09:10:41;100115.31;;;10.44;100.00
71465;BME280;59274;49.874;9.154;2023-02-23T09:13:09;100114.97;;;10.52;100.00
71465;BME280;59274;49.874;9.154;2023-02-23T09:15:36;100118.09;;;10.54;100.00
71465;BME280;59274;49.874;9.154;2023-02-23T09:18:02;100117.44;;;10.68;100.00
71465;BME280;59274;49.874;9.154;2023-02-23T09:20:28;100125.66;;;10.75;100.00
71465;BME280;59274;49.874;9.154;2023-02-23T09:22:53;100116.34;;;10.76;100.00
71465;BME280;59274;49.874;9.154;2023-02-23T09:25:20;100128.00;;;10.77;100.00
71465;BME280;59274;49.874;9.154;2023-02-23T09:27:48;100126.06;;;10.77;100.00
71465;BME280;59274;49.874;9.154;2023-02-23T09:30:15;100133.78;;;10.72;100.00
71465;BME280;59274;49.874;9.154;2023-02-23T09:32:48;100127.22;;;10.76;100.00
71465;BME280;59274;49.874;9.154;2023-02-23T09:35:16;100129.09;;;10.69;100.00
71465;BME280;59274;49.874;9.154;2023-02-23T09:37:53;100128.66;;;10.63;100.00
71465;BME280;59274;49.874;9.154;2023-02-23T09:40:25;100136.94;;;10.81;100.00
71465;BME280;59274;49.874;9.154;2023-02-23T09:43:02;100130.41;;;10.85;100.00
71465;BME280;59274;49.874;9.154;2023-02-23T09:45:46;100135.00;;;10.78;100.00
71465;BME280;59274;49.874;9.154;2023-02-23T09:48:17;100132.34;;;10.88;100.00
71465;BME280;59274;49.874;9.154;2023-02-23T09:50:54;100127.69;;;10.89;100.00
71465;BME280;59274;49.874;9.154;2023-02-23T09:55:58;100132.84;;;11.01;100.00
71465;BME280;59274;49.874;9.154;2023-02-23T09:58:29;100132.75;;;10.90;100.00
71465;BME280;59274;49.874;9.154;2023-02-23T10:06:28;100143.06;;;11.18;100.00
71465;BME280;59274;49.874;9.154;2023-02-23T10:11:36;100140.13;;;11.48;100.00
71465;BME280;59274;49.874;9.154;2023-02-23T10:14:20;100139.44;;;11.65;100.00
71465;BME280;59274;49.874;9.154;2023-02-23T10:22:02;100149.31;;;11.95;100.00
71465;BME280;59274;49.874;9.154;2023-02-23T10:24:35;100143.88;;;11.95;100.00
71465;BME280;59274;49.874;9.154;2023-02-23T10:29:35;100143.94;;;12.12;100.00
71465;BME280;59274;49.874;9.154;2023-02-23T10:32:14;100144.63;;;11.88;100.00
71465;BME280;59274;49.874;9.154;2023-02-23T10:34:44;100152.00;;;11.88;100.00
71465;BME280;59274;49.874;9.154;2023-02-23T10:37:11;100141.50;;;11.83;100.00
71465;BME280;59274;49.874;9.154;2023-02-23T10:39:39;100143.44;;;11.82;100.00
71465;BME280;59274;49.874;9.154;2023-02-23T10:42:06;100144.16;;;11.72;100.00
71465;BME280;59274;49.874;9.154;2023-02-23T10:44:37;100149.19;;;11.73;100.00
71465;BME280;59274;49.874;9.154;2023-02-23T10:47:15;100146.91;;;11.75;100.00
71465;BME280;59274;49.874;9.154;2023-02-23T10:49:46;100147.53;;;11.48;100.00
71465;BME280;59274;49.874;9.154;2023-02-23T10:52:16;100137.84;;;11.54;100.00
71465;BME280;59274;49.874;9.154;2023-02-23T10:54:43;100145.59;;;11.48;100.00
71465;BME280;59274;49.874;9.154;2023-02-23T10:57:30;100144.00;;;11.44;100.00
71465;BME280;59274;49.874;9.154;2023-02-23T11:02:41;100137.84;;;11.50;100.00
71465;BME280;59274;49.874;9.154;2023-02-23T11:05:27;100137.00;;;11.46;100.00
71465;BME280;59274;49.874;9.154;2023-02-23T11:08:10;100136.31;;;11.60;100.00
71465;BME280;59274;49.874;9.154;2023-02-23T11:10:36;100146.94;;;11.79;100.00
71465;BME280;59274;49.874;9.154;2023-02-23T11:13:04;100140.72;;;11.82;100.00
71465;BME280;59274;49.874;9.154;2023-02-23T11:15:32;100136.88;;;11.90;100.00
71465;BME280;59274;49.874;9.154;2023-02-23T11:18:00;100131.94;;;12.28;100.00
71465;BME280;59274;49.874;9.154;2023-02-23T11:20:40;100126.91;;;12.62;100.00
71465;BME280;59274;49.874;9.154;2023-02-23T11:23:30;100126.13;;;12.86;100.00
71465;BME280;59274;49.874;9.154;2023-02-23T11:26:40;100126.13;;;12.75;100.00
71465;BME280;59274;49.874;9.154;2023-02-23T11:29:21;100134.69;;;12.49;100.00
71465;BME280;59274;49.874;9.154;2023-02-23T11:31:51;100133.16;;;12.83;100.00
71465;BME280;59274;49.874;9.154;2023-02-23T11:34:42;100135.50;;;12.64;100.00
71465;BME280;59274;49.874;9.154;2023-02-23T11:42:21;100121.06;;;12.49;100.00
71465;BME280;59274;49.874;9.154;2023-02-23T11:45:06;100125.66;;;12.16;100.00
71465;BME280;59274;49.874;9.154;2023-02-23T11:47:40;100121.03;;;12.21;100.00
71465;BME280;59274;49.874;9.154;2023-02-23T11:52:47;100116.72;;;12.12;100.00
71465;BME280;59274;49.874;9.154;2023-02-23T11:55:17;100115.88;;;11.91;100.00
71465;BME280;59274;49.874;9.154;2023-02-23T11:57:44;100116.91;;;11.65;100.00
71465;BME280;59274;49.874;9.154;2023-02-23T12:00:22;100111.97;;;11.88;100.00
71465;BME280;59274;49.874;9.154;2023-02-23T12:02:51;100107.38;;;12.06;100.00
71465;BME280;59274;49.874;9.154;2023-02-23T12:05:20;100100.69;;;11.83;100.00
71465;BME280;59274;49.874;9.154;2023-02-23T12:10:38;100101.53;;;12.04;100.00
71465;BME280;59274;49.874;9.154;2023-02-23T12:15:55;100105.06;;;12.30;100.00
71465;BME280;59274;49.874;9.154;2023-02-23T12:21:26;100098.88;;;12.33;100.00
71465;BME280;59274;49.874;9.154;2023-02-23T12:24:04;100098.47;;;12.38;100.00
71465;BME280;59274;49.874;9.154;2023-02-23T12:26:55;100098.50;;;12.66;100.00
71465;BME280;59274;49.874;9.154;2023-02-23T12:29:30;100100.81;;;13.17;99.57
71465;BME280;59274;49.874;9.154;2023-02-23T12:34:57;100100.78;;;13.31;99.76
71465;BME280;59274;49.874;9.154;2023-02-23T12:37:37;100091.06;;;13.23;98.02
71465;BME280;59274;49.874;9.154;2023-02-23T12:40:16;100091.00;;;13.48;99.34
71465;BME280;59274;49.874;9.154;2023-02-23T12:42:51;100092.03;;;13.79;96.84
71465;BME280;59274;49.874;9.154;2023-02-23T12:45:24;100092.34;;;13.95;95.22
71465;BME280;59274;49.874;9.154;2023-02-23T12:48:05;100090.66;;;14.19;93.01
71465;BME280;59274;49.874;9.154;2023-02-23T12:50:37;100091.31;;;14.37;92.07
71465;BME280;59274;49.874;9.154;2023-02-23T13:09:16;100074.75;;;14.00;87.76
71465;BME280;59274;49.874;9.154;2023-02-23T13:14:27;100082.63;;;13.91;88.28
71465;BME280;59274;49.874;9.154;2023-02-23T13:17:04;100070.69;;;13.53;88.65
71465;BME280;59274;49.874;9.154;2023-02-23T13:19:49;100071.53;;;13.43;87.48
71465;BME280;59274;49.874;9.154;2023-02-23T13:22:27;100068.06;;;13.28;87.87
71465;BME280;59274;49.874;9.154;2023-02-23T13:24:57;100065.34;;;13.28;86.84
71465;BME280;59274;49.874;9.154;2023-02-23T13:27:28;100072.34;;;13.22;87.07
71465;BME280;59274;49.874;9.154;2023-02-23T13:29:55;100068.47;;;13.09;87.83
71465;BME280;59274;49.874;9.154;2023-02-23T13:32:25;100069.28;;;12.99;86.10
71465;BME280;59274;49.874;9.154;2023-02-23T13:35:23;100068.13;;;12.78;88.56
71465;BME280;59274;49.874;9.154;2023-02-23T13:38:39;100063.47;;;12.75;88.28
71465;BME280;59274;49.874;9.154;2023-02-23T13:41:26;100065.00;;;12.66;89.49
71465;BME280;59274;49.874;9.154;2023-02-23T13:44:01;100059.59;;;12.62;89.93
71465;BME280;59274;49.874;9.154;2023-02-23T13:46:46;100065.81;;;12.55;90.83
71465;BME280;59274;49.874;9.154;2023-02-23T13:52:30;100069.28;;;12.31;91.02
71465;BME280;59274;49.874;9.154;2023-02-23T13:54:58;100075.53;;;12.21;92.53
71465;BME280;59274;49.874;9.154;2023-02-23T13:57:29;100069.66;;;12.19;92.68
71465;BME280;59274;49.874;9.154;2023-02-23T13:59:55;100072.41;;;12.19;92.11
71465;BME280;59274;49.874;9.154;2023-02-23T14:02:54;100070.03;;;12.00;92.16
71465;BME280;59274;49.874;9.154;2023-02-23T14:05:22;100069.22;;;11.85;92.89
71465;BME280;59274;49.874;9.154;2023-02-23T14:07:58;100072.31;;;11.87;92.73
71465;BME280;59274;49.874;9.154;2023-02-23T14:10:44;100071.88;;;11.74;92.82
71465;BME280;59274;49.874;9.154;2023-02-23T14:23:33;100071.50;;;11.80;94.41
71465;BME280;59274;49.874;9.154;2023-02-23T14:29:08;100068.03;;;11.83;95.21
71465;BME280;59274;49.874;9.154;2023-02-23T14:31:29;100067.25;;;11.82;94.57
71465;BME280;59274;49.874;9.154;2023-02-23T14:33:58;100066.50;;;11.85;94.26
71465;BME280;59274;49.874;9.154;2023-02-23T14:39:00;100062.19;;;11.81;95.34
71465;BME280;59274;49.874;9.154;2023-02-23T14:44:25;100062.59;;;11.83;94.01
71465;BME280;59274;49.874;9.154;2023-02-23T14:47:11;100065.31;;;11.79;93.45
71465;BME280;59274;49.874;9.154;2023-02-23T14:49:49;100064.13;;;11.80;93.64
71465;BME280;59274;49.874;9.154;2023-02-23T14:52:20;100062.22;;;11.88;93.42
71465;BME280;59274;49.874;9.154;2023-02-23T14:54:46;100063.78;;;11.85;94.01
71465;BME280;59274;49.874;9.154;2023-02-23T14:57:23;100059.09;;;11.89;92.81
71465;BME280;59274;49.874;9.154;2023-02-23T15:00:16;100059.50;;;11.95;93.25
71465;BME280;59274;49.874;9.154;2023-02-23T15:05:23;100062.22;;;11.95;93.07
71465;BME280;59274;49.874;9.154;2023-02-23T15:07:50;100057.94;;;11.83;93.40